AGROMETEOROLOŠKI PORTAL
Vinorodna pokrajina

Temelj dobrega kmetovanja.

Izpis lokacij s podatki meritev in opazovanj za Osrednja Slovenija

Pregled minimalnih nočnih temperatur med 18.4.2024 od 22:00 in 19.4.2024 do 10:00 (zapri pregled)
Osrednja Slovenija
Lokacija Nadmorska višina Lega Višina meritve senzorja Datum in čas meritve Dosežena min. temperatura RH Veter (m/s) Temp. rosišča Temp. mokrega termometra
Borovnica 288 m 2 m 19.4.2024 07:00 0,6 91,2 0,0 -0,7 0,1
Brdo pri Lukovici 368 m J 2 m 19.4.2024 07:00 0,3 87,3 0,4 -1,6 -0,4
Češnjevek (Cerklje) 405 m S 2 m 19.4.2024 07:00 -0,6 85,9 0,3 -2,7 -1,4
Gabrska Gora 487 m 2 m 19.4.2024 07:00 1,7 84,8 0,4 -0,6 0,8
Jablje 302 m S 2 m 19.4.2024 07:00 1,2 93,9 0,2 0,3 0,8
Jablje 302 m S 20 cm 19.4.2024 07:00 1,2 93,9 0,2 0,3 0,8
Kamnik 377 m JV 2 m 19.4.2024 07:00 1,2 78,4 0,5 -2,1 -0,1
Kovor 514 m 20 cm 19.4.2024 07:00 -1,9 76,0 0,6 -5,6 -3,2
Kovor 514 m 2 m 19.4.2024 07:00 -1,9 76,0 0,6 -5,6 -3,2
Ljubljana KIS 297 m S 2 m 19.4.2024 07:00 0,8 94,5 0,3 0,0 0,5
Podbrezje 456 m JV 2 m 19.4.2024 07:00 0,4 77,3 0,6 -3,1 -0,9
Polževo 612 m 2 m 19.4.2024 07:00 2,1 84,7 0,2 -0,2 1,2
Resje 503 m 2 m 19.4.2024 07:00 -0,1 84,0 0,3 -2,5 -1,0
Šentjakob 279 m 2 m 19.4.2024 07:00 1,0 93,1 0,4 0,0 0,6
Šentjakob 279 m 20 cm 19.4.2024 07:00 1,0 93,1 0,4 0,0 0,6
Vnajnarje 667 m S 2 m 19.4.2024 07:00 0,7 86,9 0,1 -1,2 -0,1
Žabnica (Dorfarje) 372 m 2 m 19.4.2024 07:00 0,8 91,2 0,2 -0,5 0,3
BOHINJSKA ČEŠNJICA - ARSO 596 m 2 m 19.4.2024 07:00 -1,1 78,5 0,5 -4,4 -2,3
BORŠT PRI GORENJI VASI ARSO 532 m 2 m 19.4.2024 07:00 -1,0 86,7 0,2 -2,9 -1,7
BRNIK - LETALIŠČE - ARSO 364 m 2 m 19.4.2024 07:00 1,1 88,4 0,1 -0,6 0,4
Lesce 515 m 2 m 19.4.2024 07:00 -1,7 78,1 0,6 -5,0 -2,9
LITIJA ARSO 263 m 2 m 19.4.2024 07:00 1,3 88,2 0,3 -0,4 0,6
Ljubljana - Bežigrad ARSO 299 m 2 m 19.4.2024 07:00 0,8 94,5 0,3 0,0 0,5
LOGATEC - ARSO 486 m 2 m 19.4.2024 07:00 1,0 90,2 0,4 -0,4 0,4
NOVA VAS - BLOKE - ARSO 718 m 2 m 19.4.2024 07:00 0,5 85,9 0,2 -1,6 -0,3
VRHNIKA ARSO 367 m 2 m 19.4.2024 07:00 1,9 87,1 0,3 0,0 1,1
Jeprca DRSI 360 m 2 m 19.4.2024 07:00 0,8 91,2 0,2 -0,5 0,3
Kranj - Delavski most DRSI 380 m 2 m 19.4.2024 07:00 0,6 89,6 0,1 -0,9 0,0
Krtina 1 DRSI 308 m 2 m 19.4.2024 07:00 0,8 92,4 0,3 -0,3 0,4
Moste pri Komendi DRSI 331 m 2 m 19.4.2024 07:00 1,1 90,0 0,2 -0,4 0,5
Podvin DRSI 489 m 2 m 19.4.2024 07:00 -0,1 84,0 0,3 -2,5 -1,0
Vir pri Domžalah DRSI 308 m 2 m 19.4.2024 07:00 1,0 93,1 0,3 0,0 0,6
Vrhnika AC priključek DRSI 293 m 2 m 19.4.2024 07:00 1,8 89,4 0,2 0,3 1,2
Postaje, katerih podatke prikazujemo na portalu, so postaje proizvajalca Adcon Telemetry in Pessl (UVHVVR/MKGP), postaje ARSO in postaje DRSI.

IZJAVA O OMEJITVI ODGOVORNOSTI: Uprava Republike Slovenije za varno hrano, veterinarstvo in varstvo rastlin (Uprava) skupaj z Opazovalno napovedovalno službo zdravstvenega varstva rastlin skrbi za nemoteno delovanje in vzdrževanje meteoroloških podatkov iz mreže agrometeoroloških postaj (Adcon Telemety). Agrometeorološki podatki, ki so objavljeni na tej strani, so zgolj informativne narave. Za morebitne vsebinske napake, do katerih lahko pride zaradi tehničnih težav pri vzdrževanju mreže, napak merilne opreme ali drugih nepredvidljivih vzrokov, napak pri vnosu, posodabljanja vsebin, Uprava ne prevzema odgovornosti, kakor tudi ne zaradi nepravilnega delovanja in/ali nedostopnosti vsebine teh spletnih strani. Uprava tudi ne prevzema odgovornosti za kakršnokoli neposredno ali posredno izgubo oziroma škodo, materialno in nematerialno, ki bi nastala zaradi dostopa, uporabe ali odločitve, sprejete na podlagi informacij, objavljenih na teh spletnih straneh, kakor tudi ne zaradi nepravilnega delovanja in/ali nedostopnosti vsebine teh spletnih strani. Uprava si pridržuje pravico do spremembe oziroma umika vsebine, deloma ali v celoti, brez predhodne najave. Vsak poskus nepooblaščenega spreminjanja ali poškodovanja spletnih strani, kot tudi nepooblaščen dostop do informacij mimo spletnih strani in do drugih vsebin, je kaznivo dejanje. Pri uporabi vsebin, objavljenih na portalu, je potrebno navesti vir podatkov (UVHVVR, Agrometeorološki portal Slovenije) in upoštevati avtorske pravice.